• Join FlightAware (Why Join?)
  • Login
  • US Flag 
09:08PM EDT


 

Airport Tracker/Info


-or-


 

Live Flight TrackerFlight Track Log ✈ SQH23 ✈ 20-Apr-2012 ✈ KPDX - KOTH

Flight Track Log - Related Links

Times and Time Zones

All times are in EDT time to prevent confusion due to time zone crossing. See the SQH23 flight status page for this flight to view local times or setup timezone preferences in your user account.

Time Position Orientation Groundspeed Altitude Reporting Facility
EDT Latitude Longitude Course Direction KTS MPH feet Rate Location/Type
09:23AM 45.5950 -122.5964 241° Southwest 85 98 400  Level Seattle Center
09:24AM 45.5828 -122.6275 221° Southwest 79 91 1,600 900 Climbing Seattle Center
09:25AM 45.5625 -122.6531 221° Southwest 87 100 2,600 840 Climbing Seattle Center
09:26AM 45.5456 -122.6739 209° Southwest 86 99 3,500 840 Climbing Seattle Center
09:27AM 45.5233 -122.6911 199° South 85 98 4,400 780 Climbing Seattle Center
09:28AM 45.5036 -122.7008 208° Southwest 89 102 5,100 780 Climbing Seattle Center
09:29AM 45.4811 -122.7178 208° Southwest 92 106 6,000 840 Climbing Seattle Center
09:30AM 45.4569 -122.7358 213° Southwest 95 109 6,800 480 Climbing Seattle Center
09:32AM 45.4267 -122.7636 208° Southwest 114 131 7,100 60 Climbing Seattle Center
09:33AM 45.3922 -122.7897 207° Southwest 141 162 7,000  Descending Seattle Center
09:34AM 45.3586 -122.8139 210° Southwest 138 159 7,100  Climbing Seattle Center
09:35AM 45.3258 -122.8411 207° Southwest 137 158 7,000 -60 Descending Seattle Center
09:36AM 45.2919 -122.8661 207° Southwest 138 159 7,000  Level Seattle Center
09:37AM 45.2592 -122.8900 209° Southwest 135 155 7,000  Level Seattle Center
09:38AM 45.2267 -122.9158 207° Southwest 134 154 7,000  Level Seattle Center
09:39AM 45.1942 -122.9394 209° Southwest 132 152 7,000  Level Seattle Center
09:40AM 45.1608 -122.9661 207° Southwest 135 155 7,100  Climbing Seattle Center
09:41AM 45.1214 -122.9947 207° Southwest 134 154 7,000 -60 Descending Seattle Center
09:42AM 45.0889 -123.0186 208° Southwest 132 152 7,000  Level Seattle Center
09:43AM 45.0578 -123.0425 209° Southwest 130 150 7,000  Level Seattle Center
09:44AM 45.0256 -123.0678 208° Southwest 131 151 7,000  Level Seattle Center
09:45AM 44.9928 -123.0925 207° Southwest 132 152 7,000  Level Seattle Center
09:46AM 44.9594 -123.1167 208° Southwest 134 154 7,000  Level Seattle Center
09:47AM 44.9269 -123.1408 208° Southwest 133 153 7,000  Level Seattle Center
09:48AM 44.8944 -123.1647 209° Southwest 131 151 7,000  Level Seattle Center
09:49AM 44.8617 -123.1906 207° Southwest 133 153 7,000  Level Seattle Center
09:50AM 44.8286 -123.2147 208° Southwest 134 154 7,000  Level Seattle Center
09:51AM 44.7956 -123.2392 208° Southwest 134 154 7,000  Level Seattle Center
09:52AM 44.7625 -123.2642 207° Southwest 134 154 7,000  Level Seattle Center
09:53AM 44.7292 -123.2881 208° Southwest 134 154 7,000  Level Seattle Center
09:54AM 44.6964 -123.3125 209° Southwest 133 153 7,000  Level Seattle Center
09:55AM 44.6633 -123.3386 209° Southwest 135 155 7,000  Level Seattle Center
09:56AM 44.6303 -123.3639 207° Southwest 135 155 7,000  Level Seattle Center
09:57AM 44.5972 -123.3878 208° Southwest 134 154 7,000  Level Seattle Center
09:58AM 44.5572 -123.4181 207° Southwest 135 155 7,000  Level Seattle Center
09:59AM 44.5225 -123.4433 207° Southwest 138 159 7,000  Level Seattle Center
10:00AM 44.4900 -123.4669 209° Southwest 136 157 7,000  Level Seattle Center
10:01AM 44.4567 -123.4933 207° Southwest 136 157 7,000  Level Seattle Center
10:02AM 44.4231 -123.5169 208° Southwest 136 157 7,000  Level Seattle Center
10:03AM 44.3908 -123.5406 207° Southwest 133 153 7,000  Level Seattle Center
10:04AM 44.3569 -123.5650 208° Southwest 135 155 7,000  Level Seattle Center
10:05AM 44.3236 -123.5903 208° Southwest 136 157 7,000  Level Seattle Center
10:06AM 44.2906 -123.6150 207° Southwest 136 157 7,000  Level Seattle Center
10:07AM 44.2564 -123.6392 209° Southwest 137 158 7,000  Level Seattle Center
10:08AM 44.2231 -123.6644 207° Southwest 137 158 7,000  Level Seattle Center
10:09AM 44.1883 -123.6892 208° Southwest 139 160 7,000  Level Seattle Center
10:10AM 44.1475 -123.7194 208° Southwest 138 159 7,000  Level Seattle Center
10:11AM 44.1133 -123.7444 208° Southwest 139 160 7,100  Climbing Seattle Center
10:12AM 44.0803 -123.7686 208° Southwest 136 157 7,100  Level Seattle Center
10:13AM 44.0464 -123.7936 208° Southwest 137 158 7,100  Level Seattle Center
10:14AM 44.0125 -123.8189 207° Southwest 138 159 7,100  Level Seattle Center
10:15AM 43.9786 -123.8431 207° Southwest 137 158 7,100  Level Seattle Center
10:16AM 43.9453 -123.8669 208° Southwest 137 158 7,100  Level Seattle Center
10:17AM 43.9108 -123.8922 207° Southwest 138 159 7,100  Level Seattle Center
10:18AM 43.8769 -123.9158 208° Southwest 137 158 7,100  Level Seattle Center
10:19AM 43.8439 -123.9403 207° Southwest 136 157 7,100  Level Seattle Center
10:20AM 43.8097 -123.9647 208° Southwest 137 158 7,100 -180 Level Seattle Center
10:21AM 43.7758 -123.9894 205° Southwest 139 160 6,800 -540 Descending Seattle Center
10:22AM 43.7353 -124.0158 203° Southwest 149 171 6,100 -720 Descending Seattle Center
10:23AM 43.6858 -124.0442 203° Southwest 158 182 5,400 -540 Descending Seattle Center
10:24AM 43.6467 -124.0667 200° South 156 180 5,100 -180 Descending Seattle Center
10:25AM 43.6106 -124.0844 153° Southeast 147 169 5,100 -120 Level Seattle Center
10:26AM 43.5783 -124.0617 128° Southeast 161 185 4,900 -600 Descending Seattle Center
10:28AM 43.5492 -124.0108 149° Southeast 176 203 4,000 -420 Descending Seattle Center
10:29AM 43.5142 -123.9819 158° South 158 182 4,100  Climbing Seattle Center
10:30AM 43.4783 -123.9619 159° South 144 166 4,000 -60 Descending Seattle Center
10:31AM 43.4414 -123.9419 216° Southwest 143 165 4,000 -120 Level Seattle Center
10:32AM 43.4097 -123.9733 272° West 140 161 3,800 -480 Descending Seattle Center
10:34AM 43.4139 -124.1358 272° West 134 154 2,200 -600 Descending Seattle Center